トロムソ の空港の天気 - METARとTAF

トロムソ空港 ( ENTC / TOS ) - ノルウェー トロムス県トロムソ
飛行場実況気象(Metar)
観測時間05/28 01:50 CEST (05/27 23:50 UTC)
風向・風速南西 9m/s
視程10km以上
天気現象弱いしゅう雨
少しの雲 雲底高度 760m
全天の4割程度の雲 雲底高度 1130m
全天の8割程度の雲 雲底高度 1490m
気温5℃
湿度81%
気圧1017hPa
METARENTC 272350Z 22017KT 9999 -SHRA FEW025 SCT037 BKN049 05/02 Q1017 RMK WIND 2600FT /////KT
過去の天気等 Google飛行場航空写真 Wunderground天気予報

過去48時間のMETAR

飛行場予報(TAF)
発表時間: -
28日2時 CEST ~ 29日2時 CEST に一時的に
天気現象しゅう雨
全天の8割程度の積乱雲 雲底高度 430m
TAF ENTC 2800/2824 23018KT 9999 -SHRA FEW015 BKN040
TEMPO 2800/2824 SHRA BKN014CB